createdAt,value
2023-03-31T00:01:52.922Z,10.96
2023-03-31T00:04:24.170Z,10.97
2023-03-31T00:06:54.542Z,11.03
2023-03-31T00:09:22.187Z,10.98
2023-03-31T00:11:49.827Z,10.87
2023-03-31T00:14:18.012Z,10.79
2023-03-31T00:16:45.395Z,10.87
2023-03-31T00:19:18.076Z,10.83
2023-03-31T00:21:46.198Z,10.83
2023-03-31T00:24:13.766Z,10.94
2023-03-31T00:26:40.776Z,10.97
2023-03-31T00:29:09.683Z,11.03
2023-03-31T00:31:36.400Z,11.01
2023-03-31T00:34:03.037Z,11.11
2023-03-31T00:36:29.731Z,11.23
2023-03-31T00:39:00.980Z,11.31
2023-03-31T00:41:29.132Z,11.28
2023-03-31T00:44:01.791Z,11.33
2023-03-31T00:46:31.226Z,11.25
2023-03-31T00:48:58.097Z,11.24
2023-03-31T00:51:30.186Z,11.21
2023-03-31T00:53:59.862Z,11.16
2023-03-31T00:56:29.251Z,11.16
2023-03-31T00:58:58.083Z,11.14
2023-03-31T01:01:24.794Z,11.17
2023-03-31T01:03:52.445Z,11.18
2023-03-31T01:06:23.791Z,11.19
2023-03-31T01:08:51.757Z,11.22
2023-03-31T01:11:24.809Z,11.23
2023-03-31T01:13:56.100Z,11.22
2023-03-31T01:16:23.572Z,11.25
2023-03-31T01:18:50.922Z,11.26
2023-03-31T01:21:30.786Z,11.21
2023-03-31T01:24:32.008Z,11.24
2023-03-31T01:27:33.454Z,11.16
2023-03-31T01:30:29.072Z,11.16
2023-03-31T01:33:32.966Z,11.01
2023-03-31T01:36:30.364Z,10.96
2023-03-31T01:39:21.858Z,10.95
2023-03-31T01:41:50.733Z,10.96
2023-03-31T01:44:28.870Z,10.91
2023-03-31T01:47:18.243Z,10.89
2023-03-31T01:49:57.106Z,10.89
2023-03-31T01:52:24.132Z,10.78
2023-03-31T01:55:19.171Z,10.74
2023-03-31T01:58:00.564Z,10.73
2023-03-31T02:00:33.410Z,10.75
2023-03-31T02:03:17.052Z,10.76
2023-03-31T02:05:53.912Z,10.67
2023-03-31T02:08:23.561Z,10.62
2023-03-31T02:10:51.691Z,10.51
2023-03-31T02:13:19.206Z,10.40
2023-03-31T02:15:51.052Z,10.32
2023-03-31T02:18:21.363Z,10.26
2023-03-31T02:20:49.847Z,10.27
2023-03-31T02:23:20.264Z,10.19
2023-03-31T02:25:58.098Z,10.08
2023-03-31T02:28:26.564Z,10.11
2023-03-31T02:31:23.934Z,10.09
2023-03-31T02:33:50.794Z,10.09
2023-03-31T02:36:18.397Z,10.05
2023-03-31T02:38:53.329Z,10.02
2023-03-31T02:41:20.186Z,9.86
2023-03-31T02:43:47.500Z,9.79
2023-03-31T02:46:14.131Z,9.73
2023-03-31T02:48:44.160Z,9.63
2023-03-31T02:51:43.133Z,9.56
2023-03-31T02:54:21.458Z,9.71
2023-03-31T02:56:55.661Z,9.70
2023-03-31T02:59:37.598Z,9.50
2023-03-31T03:02:23.999Z,9.39
2023-03-31T03:05:09.724Z,9.26
2023-03-31T03:08:01.440Z,9.20
2023-03-31T03:11:00.644Z,9.41
2023-03-31T03:13:37.700Z,9.28
2023-03-31T03:16:13.889Z,9.41
2023-03-31T03:18:40.871Z,9.67
2023-03-31T03:21:07.521Z,9.76
2023-03-31T03:23:34.207Z,9.57
2023-03-31T03:26:00.754Z,9.72
2023-03-31T03:28:27.807Z,9.80
2023-03-31T03:30:54.426Z,9.71
2023-03-31T03:33:25.047Z,9.81
2023-03-31T03:35:51.925Z,9.83
2023-03-31T03:38:18.619Z,9.84
2023-03-31T03:40:46.265Z,9.93
2023-03-31T03:43:13.872Z,10.11
2023-03-31T03:45:40.386Z,10.32
2023-03-31T03:48:07.070Z,10.36
2023-03-31T03:50:36.401Z,10.40
2023-03-31T03:53:02.987Z,10.48
2023-03-31T03:55:29.575Z,10.48
2023-03-31T03:57:56.060Z,10.48
2023-03-31T04:00:22.704Z,10.63
2023-03-31T04:02:49.854Z,10.68
2023-03-31T04:05:16.420Z,10.75
2023-03-31T04:07:43.027Z,10.80
2023-03-31T04:10:09.906Z,10.74
2023-03-31T04:12:36.518Z,10.75
2023-03-31T04:15:03.698Z,10.68
2023-03-31T04:17:34.471Z,10.76
2023-03-31T04:20:02.009Z,10.77
2023-03-31T04:22:35.337Z,10.58
2023-03-31T04:25:04.275Z,10.54
2023-03-31T04:27:35.082Z,10.66
2023-03-31T04:30:02.020Z,10.60
2023-03-31T04:32:32.894Z,10.54
2023-03-31T04:35:02.706Z,10.63
2023-03-31T04:37:35.837Z,10.73
2023-03-31T04:40:08.090Z,10.69
2023-03-31T04:42:34.708Z,10.66
2023-03-31T04:45:01.955Z,10.69
2023-03-31T04:47:28.670Z,10.78
2023-03-31T04:49:55.370Z,10.76
2023-03-31T04:52:21.970Z,10.85
2023-03-31T04:54:48.588Z,10.86
2023-03-31T04:57:15.315Z,10.83
2023-03-31T04:59:43.080Z,10.87
2023-03-31T05:02:09.711Z,10.92
2023-03-31T05:04:37.646Z,11.04
2023-03-31T05:07:04.635Z,11.02
2023-03-31T05:09:31.487Z,10.98
2023-03-31T05:11:59.253Z,11.01
2023-03-31T05:14:26.430Z,10.91
2023-03-31T05:16:53.178Z,10.94
2023-03-31T05:19:19.864Z,10.86
2023-03-31T05:21:46.741Z,10.81
2023-03-31T05:24:13.697Z,10.86
2023-03-31T05:26:41.126Z,10.83
2023-03-31T05:29:07.731Z,10.74
2023-03-31T05:31:34.656Z,10.86
2023-03-31T05:34:01.187Z,10.94
2023-03-31T05:36:27.717Z,10.97
2023-03-31T05:38:54.299Z,11.01
2023-03-31T05:41:21.316Z,11.07
2023-03-31T05:43:48.003Z,11.16
2023-03-31T05:46:14.576Z,11.24
2023-03-31T05:48:41.288Z,11.33
2023-03-31T05:51:07.795Z,11.43
2023-03-31T05:53:34.980Z,11.76
2023-03-31T05:56:05.675Z,11.88
2023-03-31T05:58:34.458Z,12.05
2023-03-31T06:01:12.896Z,12.06
2023-03-31T06:03:41.621Z,12.13
2023-03-31T06:06:08.831Z,12.27
2023-03-31T06:08:38.016Z,12.40
2023-03-31T06:11:08.035Z,12.66
2023-03-31T06:13:36.156Z,12.63
2023-03-31T06:16:02.864Z,13.16
2023-03-31T06:18:31.700Z,13.77
2023-03-31T06:20:58.689Z,14.05
2023-03-31T06:23:26.184Z,13.94
2023-03-31T06:25:53.512Z,13.83
2023-03-31T06:28:21.245Z,13.95
2023-03-31T06:30:47.746Z,14.45
2023-03-31T06:33:14.312Z,14.49
2023-03-31T06:35:41.458Z,14.34
2023-03-31T06:38:08.142Z,14.12
2023-03-31T06:40:34.584Z,13.81
2023-03-31T06:43:01.057Z,13.79
2023-03-31T06:45:27.509Z,13.69
2023-03-31T06:47:54.095Z,13.79
2023-03-31T06:50:20.592Z,13.99
2023-03-31T06:52:47.097Z,14.39
2023-03-31T06:55:15.564Z,15.02
2023-03-31T06:57:42.383Z,15.97
2023-03-31T07:00:09.465Z,15.92
2023-03-31T07:02:37.306Z,15.26
2023-03-31T07:05:04.023Z,14.80
2023-03-31T07:07:34.297Z,14.51
2023-03-31T07:10:00.703Z,14.33
2023-03-31T07:12:27.102Z,14.31
2023-03-31T07:14:53.857Z,14.09
2023-03-31T07:17:21.338Z,14.12
2023-03-31T07:19:48.201Z,13.88
2023-03-31T07:22:15.817Z,13.79
2023-03-31T07:24:42.423Z,13.76
2023-03-31T07:27:08.890Z,13.90
2023-03-31T07:29:35.275Z,13.97
2023-03-31T07:32:02.122Z,14.08
2023-03-31T07:34:29.599Z,14.09
2023-03-31T07:36:56.320Z,14.33
2023-03-31T07:39:22.881Z,14.85
2023-03-31T07:41:49.294Z,16.04
2023-03-31T07:44:17.513Z,17.14
2023-03-31T07:46:44.037Z,17.98
2023-03-31T07:49:10.589Z,18.37
2023-03-31T07:51:36.988Z,18.32
2023-03-31T07:54:03.406Z,18.04
2023-03-31T07:56:29.878Z,17.28
2023-03-31T07:58:57.818Z,16.79
2023-03-31T08:01:26.277Z,16.73
2023-03-31T08:03:55.006Z,16.25
2023-03-31T08:06:23.486Z,15.84
2023-03-31T08:08:50.613Z,15.90
2023-03-31T08:11:17.700Z,15.88
2023-03-31T08:13:44.248Z,15.85
2023-03-31T08:16:10.827Z,15.19
2023-03-31T08:18:37.436Z,14.97
2023-03-31T08:21:04.186Z,14.84
2023-03-31T08:23:30.788Z,14.75
2023-03-31T08:26:17.247Z,14.46
2023-03-31T08:28:46.116Z,14.32
2023-03-31T08:31:16.246Z,14.52
2023-03-31T08:33:43.074Z,14.77
2023-03-31T08:36:11.073Z,14.83
2023-03-31T08:38:39.174Z,14.82
2023-03-31T08:41:08.317Z,14.63
2023-03-31T08:43:40.767Z,14.56
2023-03-31T08:46:11.646Z,14.55
2023-03-31T08:48:45.273Z,14.39
2023-03-31T08:51:16.481Z,14.27
2023-03-31T08:53:48.217Z,14.05
2023-03-31T08:56:20.088Z,14.05
2023-03-31T08:58:49.102Z,14.04
2023-03-31T09:01:48.388Z,13.93
2023-03-31T09:04:43.638Z,13.99
2023-03-31T09:07:16.609Z,13.89
2023-03-31T09:10:14.672Z,13.67
2023-03-31T09:12:52.793Z,13.50
2023-03-31T09:15:37.297Z,13.38
2023-03-31T09:18:11.131Z,13.26
2023-03-31T09:20:39.991Z,13.21
2023-03-31T09:23:35.684Z,13.19
2023-03-31T09:26:04.456Z,13.20
2023-03-31T09:28:39.752Z,13.24
2023-03-31T09:31:14.589Z,13.33
2023-03-31T09:33:45.206Z,13.26
2023-03-31T09:36:18.193Z,13.16
2023-03-31T09:38:46.114Z,13.13
2023-03-31T09:41:14.390Z,13.22
2023-03-31T09:43:41.440Z,13.20
2023-03-31T09:46:21.589Z,13.31
2023-03-31T09:49:12.692Z,13.14
2023-03-31T09:51:42.692Z,13.14
2023-03-31T09:54:29.610Z,13.17
2023-03-31T09:56:56.071Z,13.16
2023-03-31T09:59:30.571Z,13.17
2023-03-31T10:01:59.365Z,13.11
2023-03-31T10:04:28.356Z,13.08
2023-03-31T10:06:56.024Z,13.08
2023-03-31T10:09:28.502Z,12.96
2023-03-31T10:11:58.153Z,12.91
2023-03-31T10:14:27.441Z,12.84
2023-03-31T10:16:57.546Z,12.77
2023-03-31T10:19:26.994Z,12.78
2023-03-31T10:22:26.655Z,12.77
2023-03-31T10:24:53.505Z,12.76
2023-03-31T10:27:26.213Z,12.86
2023-03-31T10:30:01.298Z,12.91
2023-03-31T10:32:32.134Z,12.87
2023-03-31T10:35:07.618Z,12.92
2023-03-31T10:37:35.684Z,12.95
2023-03-31T10:40:06.776Z,12.96
2023-03-31T10:42:33.250Z,12.91
2023-03-31T10:45:38.896Z,12.96
2023-03-31T10:48:17.625Z,12.97
2023-03-31T10:50:44.723Z,13.06
2023-03-31T10:53:13.476Z,13.07
2023-03-31T10:55:49.761Z,13.22
2023-03-31T10:58:34.380Z,13.35
2023-03-31T11:01:17.661Z,13.30
2023-03-31T11:04:05.635Z,13.07
2023-03-31T11:07:06.544Z,12.98
2023-03-31T11:09:52.101Z,12.92
2023-03-31T11:12:25.356Z,12.97
2023-03-31T11:15:06.602Z,13.01
2023-03-31T11:17:49.085Z,12.80
2023-03-31T11:20:30.703Z,12.90
2023-03-31T11:23:12.482Z,12.87
2023-03-31T11:25:48.821Z,12.82
2023-03-31T11:28:24.451Z,12.72
2023-03-31T11:30:52.606Z,12.61
2023-03-31T11:33:37.400Z,12.57
2023-03-31T11:36:32.482Z,12.36
2023-03-31T11:39:23.712Z,12.20
2023-03-31T11:41:52.617Z,11.99
2023-03-31T11:44:20.263Z,11.86
2023-03-31T11:47:17.212Z,11.78
2023-03-31T11:49:52.484Z,11.65
2023-03-31T11:52:27.675Z,11.58
2023-03-31T11:55:05.953Z,11.50
2023-03-31T11:57:51.044Z,11.42
2023-03-31T12:00:20.509Z,11.43
2023-03-31T12:02:51.941Z,11.32
2023-03-31T12:05:21.422Z,11.24
2023-03-31T12:08:04.167Z,11.12
2023-03-31T12:10:37.472Z,10.97
2023-03-31T12:13:31.317Z,10.82
2023-03-31T12:16:29.928Z,10.67
2023-03-31T12:19:07.781Z,10.58
2023-03-31T12:21:35.521Z,10.60
2023-03-31T12:24:02.388Z,10.49
2023-03-31T12:26:49.440Z,10.48
2023-03-31T12:29:24.927Z,10.47
2023-03-31T12:31:54.481Z,10.51
2023-03-31T12:34:22.027Z,10.50
2023-03-31T12:37:22.864Z,10.45
2023-03-31T12:40:34.398Z,10.46
2023-03-31T12:43:22.230Z,10.43
2023-03-31T12:45:57.988Z,10.49
2023-03-31T12:48:33.649Z,10.44
2023-03-31T12:51:21.313Z,10.46
2023-03-31T12:54:16.002Z,10.44
2023-03-31T12:57:00.813Z,10.39
2023-03-31T12:59:41.466Z,10.44
2023-03-31T13:02:14.862Z,10.42
2023-03-31T13:04:41.540Z,10.29
2023-03-31T13:07:37.816Z,10.37
2023-03-31T13:10:17.098Z,10.41
2023-03-31T13:12:58.335Z,10.45
2023-03-31T13:15:25.851Z,10.43
2023-03-31T13:18:04.836Z,10.42
2023-03-31T13:20:39.001Z,10.51
2023-03-31T13:23:11.873Z,10.56
2023-03-31T13:25:49.370Z,10.57
2023-03-31T13:28:21.955Z,10.56
2023-03-31T13:31:00.825Z,10.65
2023-03-31T13:33:57.408Z,10.62
2023-03-31T13:36:33.311Z,10.60
2023-03-31T13:39:18.669Z,10.56
2023-03-31T13:42:23.208Z,10.62
2023-03-31T13:45:08.081Z,10.60
2023-03-31T13:47:40.947Z,10.71
2023-03-31T13:50:37.600Z,10.78
2023-03-31T13:53:25.589Z,10.67
2023-03-31T13:56:04.480Z,10.60
2023-03-31T13:59:15.306Z,10.68
2023-03-31T14:02:16.522Z,10.67
2023-03-31T14:05:31.736Z,10.76
2023-03-31T14:08:15.290Z,10.78
2023-03-31T14:10:42.966Z,10.78
2023-03-31T14:13:12.279Z,10.83
2023-03-31T14:15:42.230Z,10.88
2023-03-31T14:18:11.202Z,10.89
2023-03-31T14:20:44.864Z,10.96
2023-03-31T14:23:37.639Z,11.13
2023-03-31T14:26:08.276Z,11.31
2023-03-31T14:28:52.513Z,11.49
2023-03-31T14:31:37.468Z,11.65
2023-03-31T14:34:40.162Z,11.78
2023-03-31T14:37:11.160Z,11.84
2023-03-31T14:39:50.931Z,11.73
2023-03-31T14:42:30.017Z,11.65
2023-03-31T14:44:58.662Z,11.75
2023-03-31T14:47:29.311Z,11.97
2023-03-31T14:50:12.205Z,12.26
2023-03-31T14:52:39.664Z,12.87
2023-03-31T14:55:06.968Z,13.15
2023-03-31T14:57:36.591Z,13.45
2023-03-31T15:00:08.243Z,13.67
2023-03-31T15:02:41.631Z,13.77
2023-03-31T15:05:10.674Z,13.90
2023-03-31T15:07:37.472Z,14.05
2023-03-31T15:10:05.475Z,14.10
2023-03-31T15:12:31.975Z,14.09
2023-03-31T15:15:04.128Z,14.28
2023-03-31T15:17:33.291Z,14.29
2023-03-31T15:20:01.317Z,14.38
2023-03-31T15:22:29.772Z,14.53
2023-03-31T15:24:57.762Z,14.63
2023-03-31T15:27:37.734Z,14.68
2023-03-31T15:30:19.969Z,14.74
2023-03-31T15:32:46.951Z,14.62
2023-03-31T15:35:26.402Z,14.38
2023-03-31T15:37:54.768Z,13.77
2023-03-31T15:40:24.346Z,13.57
2023-03-31T15:45:50.993Z,13.30
2023-03-31T15:48:24.944Z,13.25
2023-03-31T15:50:53.822Z,13.15
2023-03-31T15:53:33.079Z,13.15
2023-03-31T15:56:02.228Z,12.97
2023-03-31T15:58:56.631Z,12.86
2023-03-31T16:01:29.653Z,12.85
2023-03-31T16:03:57.373Z,12.69
2023-03-31T16:06:45.064Z,12.62
2023-03-31T16:09:26.475Z,12.18
2023-03-31T16:11:58.719Z,12.17
2023-03-31T16:14:35.213Z,12.05
2023-03-31T16:17:08.210Z,12.02
2023-03-31T16:19:45.458Z,12.09
2023-03-31T16:22:19.086Z,12.06
2023-03-31T16:24:45.716Z,11.93
2023-03-31T16:27:12.297Z,11.88
2023-03-31T16:29:39.112Z,11.85
2023-03-31T16:32:17.316Z,11.73
2023-03-31T16:34:53.474Z,11.63
2023-03-31T16:37:20.074Z,11.62
2023-03-31T16:39:46.578Z,11.63
2023-03-31T16:42:13.425Z,11.60
2023-03-31T16:44:41.568Z,11.57
2023-03-31T16:47:09.508Z,11.59
2023-03-31T16:49:37.002Z,11.57
2023-03-31T16:52:05.043Z,11.61
2023-03-31T16:54:31.833Z,11.53
2023-03-31T16:56:58.666Z,11.40
2023-03-31T16:59:25.334Z,11.25
2023-03-31T17:01:52.304Z,11.11
2023-03-31T17:04:19.787Z,10.98
2023-03-31T17:06:46.421Z,10.86
2023-03-31T17:09:13.058Z,10.75
2023-03-31T17:11:39.538Z,10.65
2023-03-31T17:14:06.264Z,10.57
2023-03-31T17:16:45.012Z,10.45
2023-03-31T17:19:14.843Z,10.34
2023-03-31T17:21:41.343Z,10.24
2023-03-31T17:24:08.396Z,10.18
2023-03-31T17:26:36.048Z,10.13
2023-03-31T17:29:02.795Z,10.09
2023-03-31T17:31:30.566Z,9.95
2023-03-31T17:33:57.285Z,9.79
2023-03-31T17:36:23.739Z,9.68
2023-03-31T17:38:50.173Z,9.58
2023-03-31T17:41:17.777Z,9.51
2023-03-31T17:43:45.897Z,9.40
2023-03-31T17:46:12.851Z,9.33
2023-03-31T17:48:40.571Z,9.32
2023-03-31T17:51:08.877Z,9.31
2023-03-31T17:53:36.283Z,9.20
2023-03-31T17:56:04.268Z,9.43
2023-03-31T17:58:31.124Z,9.34
2023-03-31T18:00:57.788Z,9.48
2023-03-31T18:03:25.443Z,9.65
2023-03-31T18:05:52.256Z,9.50
2023-03-31T18:08:18.902Z,9.51
2023-03-31T18:10:46.047Z,9.37
2023-03-31T18:13:12.941Z,9.40
2023-03-31T18:15:39.581Z,9.43
2023-03-31T18:18:06.332Z,9.55
2023-03-31T18:20:33.682Z,9.67
2023-03-31T18:23:00.627Z,9.68
2023-03-31T18:25:27.271Z,9.75
2023-03-31T18:27:54.245Z,9.77
2023-03-31T18:30:20.893Z,9.83
2023-03-31T18:32:47.447Z,9.88
2023-03-31T18:35:13.900Z,9.93
2023-03-31T18:37:43.799Z,9.97
2023-03-31T18:40:11.044Z,9.97
2023-03-31T18:42:37.779Z,10.02
2023-03-31T18:45:04.929Z,10.01
2023-03-31T18:47:31.731Z,10.04
2023-03-31T18:49:58.436Z,10.23
2023-03-31T18:52:24.918Z,10.24
2023-03-31T18:54:51.521Z,10.22
2023-03-31T18:57:17.970Z,10.24
2023-03-31T18:59:44.661Z,10.29
2023-03-31T19:02:17.854Z,10.29
2023-03-31T19:04:45.413Z,10.30
2023-03-31T19:07:11.970Z,10.43
2023-03-31T19:09:38.995Z,10.29
2023-03-31T19:12:05.882Z,10.40
2023-03-31T19:14:33.332Z,10.32
2023-03-31T19:17:00.101Z,10.29
2023-03-31T19:19:27.148Z,10.22
2023-03-31T19:21:54.443Z,10.17
2023-03-31T19:24:20.998Z,10.10
2023-03-31T19:26:48.234Z,10.13
2023-03-31T19:29:15.109Z,10.04
2023-03-31T19:31:42.304Z,10.01
2023-03-31T19:34:11.651Z,10.15
2023-03-31T19:36:38.682Z,10.11
2023-03-31T19:39:08.690Z,10.18
2023-03-31T19:41:35.876Z,10.25
2023-03-31T19:44:02.368Z,10.23
2023-03-31T19:46:29.026Z,10.28
2023-03-31T19:48:55.618Z,10.36
2023-03-31T19:51:22.225Z,10.37
2023-03-31T19:53:48.715Z,10.43
2023-03-31T19:56:17.267Z,10.43
2023-03-31T19:58:44.517Z,10.52
2023-03-31T20:01:17.764Z,10.52
2023-03-31T20:03:44.689Z,10.51
2023-03-31T20:06:13.689Z,10.62
2023-03-31T20:08:44.325Z,10.57
2023-03-31T20:11:13.410Z,10.60
2023-03-31T20:13:41.934Z,10.66
2023-03-31T20:16:19.897Z,10.66
2023-03-31T20:18:52.010Z,10.67
2023-03-31T20:21:21.172Z,10.67
2023-03-31T20:23:47.926Z,10.62
2023-03-31T20:26:17.418Z,10.61
2023-03-31T20:28:44.390Z,10.57
2023-03-31T20:31:13.803Z,10.63
2023-03-31T20:33:42.012Z,10.67
2023-03-31T20:36:11.394Z,10.65
2023-03-31T20:38:39.453Z,10.51
2023-03-31T20:41:06.988Z,10.40
2023-03-31T20:43:35.596Z,10.33
2023-03-31T20:46:04.335Z,10.26
2023-03-31T20:48:37.585Z,10.20
2023-03-31T20:51:09.098Z,10.16
2023-03-31T20:53:41.791Z,10.09
2023-03-31T20:56:10.150Z,10.09
2023-03-31T20:58:36.742Z,10.04
2023-03-31T21:01:04.076Z,10.01
2023-03-31T21:03:30.903Z,9.94
2023-03-31T21:06:01.748Z,9.96
2023-03-31T21:08:28.307Z,9.97
2023-03-31T21:10:58.548Z,9.96
2023-03-31T21:13:26.651Z,9.96
2023-03-31T21:15:58.719Z,9.95
2023-03-31T21:18:26.386Z,9.95
2023-03-31T21:20:56.403Z,10.00
2023-03-31T21:23:24.212Z,9.97
2023-03-31T21:25:52.976Z,9.93
2023-03-31T21:28:21.741Z,9.98
2023-03-31T21:30:56.633Z,9.95
2023-03-31T21:33:25.047Z,9.94
2023-03-31T21:35:52.750Z,9.93
2023-03-31T21:38:22.085Z,9.95
2023-03-31T21:40:49.428Z,9.94
2023-03-31T21:43:15.930Z,9.93
2023-03-31T21:45:42.858Z,9.92
2023-03-31T21:48:10.759Z,9.90
2023-03-31T21:50:39.869Z,9.85
2023-03-31T21:53:08.193Z,9.86
2023-03-31T21:55:37.382Z,9.82
2023-03-31T21:58:05.155Z,9.78
2023-03-31T22:00:32.543Z,9.78
2023-03-31T22:03:16.035Z,9.77
2023-03-31T22:05:46.653Z,9.79
2023-03-31T22:08:13.168Z,9.84
2023-03-31T22:10:39.883Z,9.86
2023-03-31T22:13:06.663Z,9.87
2023-03-31T22:15:33.351Z,9.86
2023-03-31T22:18:01.592Z,9.87
2023-03-31T22:20:28.301Z,9.87
2023-03-31T22:22:54.871Z,9.91
2023-03-31T22:25:21.402Z,9.95
2023-03-31T22:27:48.209Z,9.97
2023-03-31T22:30:14.923Z,9.93
2023-03-31T22:32:41.929Z,9.95
2023-03-31T22:35:08.920Z,9.96
2023-03-31T22:37:35.449Z,9.94
2023-03-31T22:43:49.344Z,9.91
2023-03-31T22:46:16.037Z,9.92
2023-03-31T22:48:43.026Z,9.99
2023-03-31T22:51:11.887Z,10.02
2023-03-31T22:53:38.434Z,10.01
2023-03-31T22:56:07.868Z,10.00
2023-03-31T22:58:34.676Z,9.96
2023-03-31T23:01:01.692Z,9.96
2023-03-31T23:03:28.569Z,9.91
2023-03-31T23:05:55.265Z,9.99
2023-03-31T23:08:22.100Z,9.97
2023-03-31T23:10:56.633Z,10.00
2023-03-31T23:13:24.061Z,9.98
2023-03-31T23:15:50.562Z,9.95
2023-03-31T23:18:17.411Z,9.91
2023-03-31T23:20:44.124Z,9.95
2023-03-31T23:23:11.624Z,9.97
2023-03-31T23:25:38.501Z,10.03
2023-03-31T23:28:05.923Z,10.06
2023-03-31T23:30:32.505Z,10.04
2023-03-31T23:32:59.311Z,10.07
2023-03-31T23:35:26.318Z,10.10
2023-03-31T23:37:53.047Z,10.16
2023-03-31T23:40:19.574Z,10.16
2023-03-31T23:42:46.346Z,10.10
2023-03-31T23:45:13.063Z,10.09
2023-03-31T23:47:40.918Z,10.07
2023-03-31T23:50:08.907Z,10.01
2023-03-31T23:52:36.137Z,9.94
2023-03-31T23:55:03.558Z,9.76
2023-03-31T23:57:30.098Z,9.71
2023-03-31T23:59:56.646Z,9.66
